createdAt,value
2018-10-03T00:01:11.236Z,3.07
2018-10-03T00:03:38.843Z,4.10
2018-10-03T00:06:06.458Z,2.83
2018-10-03T00:08:34.191Z,2.67
2018-10-03T00:11:01.760Z,3.00
2018-10-03T00:13:29.378Z,2.43
2018-10-03T00:15:57.092Z,2.43
2018-10-03T00:18:24.696Z,2.90
2018-10-03T00:20:52.279Z,3.00
2018-10-03T00:23:19.897Z,2.80
2018-10-03T00:25:47.479Z,3.30
2018-10-03T00:28:15.121Z,3.20
2018-10-03T00:30:42.723Z,3.17
2018-10-03T00:33:10.327Z,3.10
2018-10-03T00:35:37.933Z,3.13
2018-10-03T00:38:05.589Z,4.67
2018-10-03T00:40:33.220Z,3.47
2018-10-03T00:43:00.934Z,2.93
2018-10-03T00:45:28.548Z,3.27
2018-10-03T00:47:56.202Z,3.77
2018-10-03T00:50:23.751Z,3.53
2018-10-03T00:52:51.420Z,3.40
2018-10-03T00:55:18.988Z,2.50
2018-10-03T00:57:46.640Z,3.30
2018-10-03T01:00:14.331Z,4.00
2018-10-03T01:02:41.974Z,3.40
2018-10-03T01:05:09.610Z,2.80
2018-10-03T01:07:37.216Z,3.00
2018-10-03T01:10:04.876Z,3.03
2018-10-03T01:12:32.501Z,2.47
2018-10-03T01:15:00.194Z,2.50
2018-10-03T01:17:27.791Z,3.30
2018-10-03T01:19:55.312Z,3.40
2018-10-03T01:22:22.949Z,4.33
2018-10-03T01:24:50.629Z,3.10
2018-10-03T01:27:18.220Z,2.87
2018-10-03T01:29:45.839Z,3.07
2018-10-03T01:32:13.452Z,3.00
2018-10-03T01:34:40.990Z,3.60
2018-10-03T01:37:08.621Z,3.27
2018-10-03T01:39:36.187Z,3.23
2018-10-03T01:42:03.893Z,3.23
2018-10-03T01:44:31.591Z,3.00
2018-10-03T01:46:59.239Z,3.20
2018-10-03T01:49:26.877Z,3.60
2018-10-03T01:51:54.425Z,2.93
2018-10-03T01:54:22.026Z,4.40
2018-10-03T01:56:49.672Z,2.80
2018-10-03T01:59:17.332Z,2.83
2018-10-03T02:01:44.908Z,2.80
2018-10-03T02:04:12.516Z,3.20
2018-10-03T02:06:40.138Z,3.37
2018-10-03T02:09:07.746Z,2.83
2018-10-03T02:11:35.392Z,3.67
2018-10-03T02:14:03.020Z,3.47
2018-10-03T02:16:30.664Z,2.83
2018-10-03T02:18:58.282Z,2.50
2018-10-03T02:21:25.899Z,2.80
2018-10-03T02:23:53.510Z,2.70
2018-10-03T02:26:21.137Z,3.20
2018-10-03T02:28:48.735Z,2.90
2018-10-03T02:31:16.315Z,2.50
2018-10-03T02:33:43.933Z,2.77
2018-10-03T02:36:11.573Z,3.47
2018-10-03T02:38:39.222Z,3.33
2018-10-03T02:41:06.853Z,2.80
2018-10-03T02:43:34.515Z,2.50
2018-10-03T02:46:02.160Z,2.70
2018-10-03T02:48:29.768Z,3.10
2018-10-03T02:50:57.440Z,2.50
2018-10-03T02:53:25.072Z,2.73
2018-10-03T02:55:52.767Z,2.67
2018-10-03T02:58:20.377Z,2.90
2018-10-03T03:00:47.942Z,2.70
2018-10-03T03:03:15.584Z,2.40
2018-10-03T03:05:43.159Z,3.20
2018-10-03T03:08:10.941Z,2.27
2018-10-03T03:10:38.621Z,3.20
2018-10-03T03:13:06.259Z,3.07
2018-10-03T03:15:33.844Z,2.10
2018-10-03T03:18:01.607Z,3.20
2018-10-03T03:20:29.240Z,3.37
2018-10-03T03:22:56.894Z,2.97
2018-10-03T03:25:24.499Z,2.73
2018-10-03T03:27:52.098Z,3.17
2018-10-03T03:30:19.709Z,2.70
2018-10-03T03:32:47.312Z,2.90
2018-10-03T03:35:14.917Z,2.93
2018-10-03T03:37:42.499Z,2.53
2018-10-03T03:40:10.043Z,2.80
2018-10-03T03:42:37.731Z,2.90
2018-10-03T03:45:05.365Z,3.40
2018-10-03T03:47:33.091Z,3.13
2018-10-03T03:50:00.652Z,3.17
2018-10-03T03:52:28.235Z,2.50
2018-10-03T03:54:55.845Z,2.63
2018-10-03T03:57:23.440Z,3.43
2018-10-03T03:59:51.024Z,2.93
2018-10-03T04:02:18.648Z,2.70
2018-10-03T04:04:46.277Z,3.20
2018-10-03T04:07:13.891Z,2.80
2018-10-03T04:09:41.492Z,2.80
2018-10-03T04:12:09.111Z,3.43
2018-10-03T04:14:36.769Z,2.50
2018-10-03T04:17:04.316Z,2.33
2018-10-03T04:19:31.926Z,2.50
2018-10-03T04:21:59.576Z,2.87
2018-10-03T04:24:27.153Z,2.90
2018-10-03T04:26:54.731Z,2.30
2018-10-03T04:29:22.411Z,2.70
2018-10-03T04:31:50.039Z,2.83
2018-10-03T04:34:17.642Z,3.20
2018-10-03T04:36:45.281Z,3.20
2018-10-03T04:39:12.874Z,2.70
2018-10-03T04:41:40.514Z,3.03
2018-10-03T04:44:08.091Z,2.23
2018-10-03T04:46:35.747Z,2.97
2018-10-03T04:49:03.437Z,2.80
2018-10-03T04:51:30.993Z,2.90
2018-10-03T04:53:58.688Z,2.77
2018-10-03T04:56:26.271Z,2.53
2018-10-03T04:58:53.866Z,2.50
2018-10-03T05:01:21.488Z,3.13
2018-10-03T05:03:49.079Z,2.37
2018-10-03T05:06:16.684Z,2.63
2018-10-03T05:08:44.343Z,2.77
2018-10-03T05:11:11.990Z,2.30
2018-10-03T05:13:39.646Z,2.20
2018-10-03T05:16:07.195Z,2.60
2018-10-03T05:18:34.817Z,3.37
2018-10-03T05:21:02.449Z,2.70
2018-10-03T05:23:30.042Z,2.23
2018-10-03T05:25:57.645Z,2.27
2018-10-03T05:28:25.267Z,2.00
2018-10-03T05:30:52.928Z,2.13
2018-10-03T05:33:20.582Z,2.77
2018-10-03T05:35:48.215Z,2.43
2018-10-03T05:38:15.948Z,2.23
2018-10-03T05:40:43.573Z,2.17
2018-10-03T05:43:11.186Z,2.37
2018-10-03T05:45:38.837Z,2.63
2018-10-03T05:48:06.480Z,1.90
2018-10-03T05:50:34.196Z,2.77
2018-10-03T05:53:01.799Z,2.97
2018-10-03T05:55:29.404Z,2.43
2018-10-03T05:57:57.061Z,3.10
2018-10-03T06:00:24.692Z,2.40
2018-10-03T06:02:52.431Z,2.63
2018-10-03T06:05:19.956Z,1.90
2018-10-03T06:07:47.551Z,2.10
2018-10-03T06:10:15.187Z,2.10
2018-10-03T06:12:42.763Z,2.60
2018-10-03T06:15:10.355Z,3.10
2018-10-03T06:17:37.949Z,2.07
2018-10-03T06:20:06.536Z,2.30
2018-10-03T06:22:34.173Z,2.40
2018-10-03T06:25:01.871Z,2.77
2018-10-03T06:27:29.594Z,2.00
2018-10-03T06:29:57.476Z,2.80
2018-10-03T06:32:25.060Z,1.87
2018-10-03T06:34:52.656Z,2.30
2018-10-03T06:37:20.262Z,2.27
2018-10-03T06:39:47.827Z,2.27
2018-10-03T06:42:15.455Z,2.13
2018-10-03T06:44:43.080Z,2.10
2018-10-03T06:47:10.809Z,2.17
2018-10-03T06:49:38.484Z,1.73
2018-10-03T06:52:06.191Z,1.83
2018-10-03T06:54:33.840Z,1.80
2018-10-03T06:57:01.431Z,1.93
2018-10-03T06:59:29.093Z,2.20
2018-10-03T07:01:56.696Z,1.60
2018-10-03T07:04:24.329Z,1.83
2018-10-03T07:06:51.970Z,2.10
2018-10-03T07:09:19.583Z,2.63
2018-10-03T07:11:47.221Z,2.00
2018-10-03T07:14:14.901Z,1.83
2018-10-03T07:16:42.472Z,2.07
2018-10-03T07:19:10.196Z,2.10
2018-10-03T07:21:37.886Z,1.70
2018-10-03T07:24:05.470Z,2.00
2018-10-03T07:26:33.101Z,1.80
2018-10-03T07:29:00.744Z,2.47
2018-10-03T07:31:28.324Z,2.30
2018-10-03T07:33:55.948Z,1.60
2018-10-03T07:36:23.611Z,1.53
2018-10-03T07:38:51.200Z,1.93
2018-10-03T07:41:18.851Z,1.60
2018-10-03T07:43:46.412Z,2.03
2018-10-03T07:46:14.041Z,1.90
2018-10-03T07:48:41.712Z,1.50
2018-10-03T07:51:09.376Z,1.83
2018-10-03T07:53:37.041Z,1.83
2018-10-03T07:56:04.695Z,1.60
2018-10-03T07:58:32.287Z,1.80
2018-10-03T08:00:59.928Z,2.27
2018-10-03T08:03:27.544Z,1.80
2018-10-03T08:05:55.117Z,1.90
2018-10-03T08:08:22.740Z,1.70
2018-10-03T08:10:50.369Z,1.80
2018-10-03T08:13:18.080Z,1.90
2018-10-03T08:15:45.673Z,1.70
2018-10-03T08:18:13.350Z,2.27
2018-10-03T08:20:40.974Z,1.93
2018-10-03T08:23:08.622Z,1.43
2018-10-03T08:25:36.274Z,1.70
2018-10-03T08:28:03.879Z,1.87
2018-10-03T08:30:31.548Z,1.50
2018-10-03T08:32:59.207Z,1.70
2018-10-03T08:35:26.748Z,1.60
2018-10-03T08:37:54.412Z,2.03
2018-10-03T08:42:56.570Z,1.77
2018-10-03T08:45:24.293Z,1.87
2018-10-03T08:47:51.916Z,2.10
2018-10-03T08:50:19.534Z,1.73
2018-10-03T08:52:47.137Z,1.63
2018-10-03T08:55:14.769Z,1.80
2018-10-03T08:57:42.693Z,1.53
2018-10-03T09:00:10.755Z,1.53
2018-10-03T09:02:38.407Z,1.63
2018-10-03T09:05:06.153Z,1.80
2018-10-03T09:07:36.435Z,1.43
2018-10-03T09:10:04.039Z,1.50
2018-10-03T09:12:31.680Z,1.80
2018-10-03T09:14:59.263Z,1.47
2018-10-03T09:17:26.842Z,1.63
2018-10-03T09:19:54.427Z,1.50
2018-10-03T09:22:22.340Z,1.80
2018-10-03T09:24:50.061Z,1.30
2018-10-03T09:27:17.698Z,1.90
2018-10-03T09:29:45.301Z,1.80
2018-10-03T09:32:12.904Z,1.87
2018-10-03T09:34:40.508Z,2.20
2018-10-03T09:37:08.089Z,1.70
2018-10-03T09:39:35.742Z,1.93
2018-10-03T09:42:03.279Z,2.00
2018-10-03T09:44:30.941Z,1.70
2018-10-03T09:46:58.529Z,1.73
2018-10-03T09:49:26.139Z,1.40
2018-10-03T09:51:53.818Z,1.87
2018-10-03T09:54:21.443Z,1.23
2018-10-03T09:56:49.044Z,1.40
2018-10-03T09:59:16.676Z,1.63
2018-10-03T10:01:44.306Z,1.30
2018-10-03T10:04:11.885Z,1.60
2018-10-03T10:06:39.581Z,1.27
2018-10-03T10:09:08.649Z,1.50
2018-10-03T10:11:36.338Z,1.70
2018-10-03T10:14:03.856Z,1.70
2018-10-03T10:16:31.544Z,1.37
2018-10-03T10:18:59.220Z,1.50
2018-10-03T10:21:26.860Z,1.33
2018-10-03T10:23:54.481Z,1.97
2018-10-03T10:26:22.083Z,1.70
2018-10-03T10:28:49.665Z,1.40
2018-10-03T10:31:17.275Z,1.53
2018-10-03T10:33:44.886Z,1.50
2018-10-03T10:36:12.506Z,1.60
2018-10-03T10:38:40.177Z,1.80
2018-10-03T10:41:07.800Z,1.63
2018-10-03T10:43:35.468Z,1.60
2018-10-03T10:46:03.053Z,1.67
2018-10-03T10:48:30.747Z,1.50
2018-10-03T10:50:58.476Z,1.63
2018-10-03T10:53:26.040Z,1.53
2018-10-03T10:55:53.697Z,1.37
2018-10-03T10:58:21.303Z,1.50
2018-10-03T11:00:49.567Z,1.40
2018-10-03T11:03:17.266Z,1.70
2018-10-03T11:05:44.905Z,1.43
2018-10-03T11:08:12.498Z,1.30
2018-10-03T11:10:40.089Z,1.30
2018-10-03T11:13:07.817Z,2.53
2018-10-03T11:15:35.444Z,1.60
2018-10-03T11:18:03.097Z,1.60
2018-10-03T11:20:30.696Z,1.50
2018-10-03T11:22:58.348Z,1.50
2018-10-03T11:25:25.952Z,1.23
2018-10-03T11:27:53.603Z,1.73
2018-10-03T11:30:21.207Z,1.60
2018-10-03T11:32:48.775Z,1.23
2018-10-03T11:35:16.369Z,1.50
2018-10-03T11:37:43.997Z,1.67
2018-10-03T11:40:11.637Z,1.30
2018-10-03T11:42:39.227Z,1.50
2018-10-03T11:45:06.852Z,1.50
2018-10-03T11:47:34.460Z,1.73
2018-10-03T11:50:02.146Z,1.30
2018-10-03T11:52:29.817Z,1.40
2018-10-03T11:54:57.477Z,1.30
2018-10-03T11:57:25.132Z,1.70
2018-10-03T11:59:52.823Z,1.33
2018-10-03T12:02:20.389Z,1.30
2018-10-03T12:04:48.086Z,1.57
2018-10-03T12:07:15.696Z,1.30
2018-10-03T12:09:43.313Z,1.70
2018-10-03T12:12:10.905Z,1.40
2018-10-03T12:14:38.531Z,1.20
2018-10-03T12:17:06.187Z,1.30
2018-10-03T12:19:33.737Z,1.70
2018-10-03T12:22:01.396Z,1.73
2018-10-03T12:24:29.037Z,1.33
2018-10-03T12:26:56.626Z,1.23
2018-10-03T12:29:24.223Z,1.30
2018-10-03T12:31:51.800Z,1.40
2018-10-03T12:34:19.351Z,1.30
2018-10-03T12:36:46.941Z,1.20
2018-10-03T12:39:14.522Z,1.10
2018-10-03T12:41:42.161Z,1.20
2018-10-03T12:44:09.776Z,1.30
2018-10-03T12:46:38.093Z,1.20
2018-10-03T12:49:05.714Z,1.30
2018-10-03T12:51:33.340Z,1.20
2018-10-03T12:54:00.968Z,1.70
2018-10-03T12:56:28.639Z,1.40
2018-10-03T12:58:56.259Z,1.10
2018-10-03T13:01:24.192Z,1.57
2018-10-03T13:03:51.796Z,1.23
2018-10-03T13:06:19.421Z,1.30
2018-10-03T13:08:47.030Z,1.10
2018-10-03T13:11:14.643Z,1.60
2018-10-03T13:13:42.305Z,1.30
2018-10-03T13:16:10.163Z,1.97
2018-10-03T13:18:37.788Z,1.40
2018-10-03T13:21:05.455Z,1.20
2018-10-03T13:23:33.112Z,1.20
2018-10-03T13:26:00.752Z,1.50
2018-10-03T13:28:28.345Z,1.27
2018-10-03T13:30:55.930Z,1.20
2018-10-03T13:33:23.556Z,1.40
2018-10-03T13:35:51.358Z,1.50
2018-10-03T13:38:18.973Z,1.57
2018-10-03T13:40:46.673Z,1.60
2018-10-03T13:43:14.239Z,1.40
2018-10-03T13:45:41.931Z,1.50
2018-10-03T13:48:09.556Z,1.30
2018-10-03T13:50:37.256Z,1.53
2018-10-03T13:53:04.873Z,1.20
2018-10-03T13:55:32.532Z,1.50
2018-10-03T13:58:00.235Z,2.17
2018-10-03T14:00:28.184Z,1.20
2018-10-03T14:02:55.828Z,1.70
2018-10-03T14:05:23.380Z,1.10
2018-10-03T14:07:51.294Z,1.30
2018-10-03T14:10:18.921Z,1.60
2018-10-03T14:12:46.515Z,1.57
2018-10-03T14:15:14.133Z,2.17
2018-10-03T14:17:41.779Z,1.60
2018-10-03T14:20:09.604Z,1.70
2018-10-03T14:22:37.284Z,1.33
2018-10-03T14:25:05.093Z,1.30
2018-10-03T14:27:32.662Z,1.40
2018-10-03T14:30:00.353Z,1.23
2018-10-03T14:32:27.976Z,1.80
2018-10-03T14:34:55.602Z,1.30
2018-10-03T14:37:23.267Z,1.50
2018-10-03T14:39:50.935Z,1.50
2018-10-03T14:42:18.562Z,1.40
2018-10-03T14:44:46.200Z,1.50
2018-10-03T14:47:13.812Z,1.30
2018-10-03T14:49:41.434Z,1.57
2018-10-03T14:52:09.083Z,1.20
2018-10-03T14:54:36.710Z,1.33
2018-10-03T14:57:04.325Z,1.50
2018-10-03T14:59:31.924Z,2.00
2018-10-03T15:01:59.568Z,1.97
2018-10-03T15:04:27.187Z,1.47
2018-10-03T15:06:54.768Z,1.20
2018-10-03T15:09:22.406Z,1.20
2018-10-03T15:11:50.044Z,1.30
2018-10-03T15:14:17.656Z,1.53
2018-10-03T15:16:45.311Z,1.60
2018-10-03T15:19:12.926Z,1.53
2018-10-03T15:21:40.484Z,0.97
2018-10-03T15:24:08.169Z,1.40
2018-10-03T15:26:35.841Z,1.20
2018-10-03T15:29:03.440Z,1.50
2018-10-03T15:31:31.011Z,1.43
2018-10-03T15:33:58.683Z,1.30
2018-10-03T15:36:26.419Z,1.70
2018-10-03T15:38:54.041Z,1.70
2018-10-03T15:41:21.747Z,1.20
2018-10-03T15:43:49.393Z,1.53
2018-10-03T15:46:17.029Z,1.70
2018-10-03T15:48:44.786Z,1.33
2018-10-03T15:51:12.581Z,1.30
2018-10-03T15:53:40.211Z,1.53
2018-10-03T15:56:07.792Z,1.50
2018-10-03T15:58:35.399Z,1.60
2018-10-03T16:01:02.960Z,1.60
2018-10-03T16:03:30.574Z,1.40
2018-10-03T16:05:58.182Z,1.67
2018-10-03T16:08:25.810Z,1.50
2018-10-03T16:10:53.476Z,1.30
2018-10-03T16:13:21.092Z,1.40
2018-10-03T16:15:48.695Z,2.10
2018-10-03T16:18:16.341Z,1.40
2018-10-03T16:20:44.002Z,1.40
2018-10-03T16:23:11.673Z,1.40
2018-10-03T16:25:39.361Z,1.47
2018-10-03T16:28:06.939Z,1.00
2018-10-03T16:30:34.553Z,1.30
2018-10-03T16:33:02.227Z,1.47
2018-10-03T16:35:29.922Z,1.33
2018-10-03T16:37:57.537Z,1.17
2018-10-03T16:40:25.168Z,1.43
2018-10-03T16:42:52.816Z,1.30
2018-10-03T16:45:20.454Z,1.30
2018-10-03T16:47:48.154Z,1.30
2018-10-03T16:50:15.775Z,1.20
2018-10-03T16:52:43.399Z,1.30
2018-10-03T16:55:11.064Z,1.30
2018-10-03T16:57:38.700Z,1.23
2018-10-03T17:00:06.434Z,1.30
2018-10-03T17:02:34.000Z,1.33
2018-10-03T17:05:01.737Z,1.07
2018-10-03T17:07:29.316Z,1.10
2018-10-03T17:09:56.968Z,1.33
2018-10-03T17:12:24.619Z,1.30
2018-10-03T17:14:52.324Z,1.30
2018-10-03T17:17:19.927Z,1.17
2018-10-03T17:19:47.592Z,1.30
2018-10-03T17:22:15.253Z,1.20
2018-10-03T17:24:42.868Z,0.90
2018-10-03T17:27:10.498Z,1.50
2018-10-03T17:29:38.060Z,1.13
2018-10-03T17:32:05.762Z,1.23
2018-10-03T17:34:33.398Z,1.20
2018-10-03T17:37:01.004Z,1.50
2018-10-03T17:39:28.879Z,1.40
2018-10-03T17:41:56.594Z,1.10
2018-10-03T17:44:24.495Z,1.30
2018-10-03T17:46:53.482Z,1.47
2018-10-03T17:49:21.131Z,1.47
2018-10-03T17:51:48.741Z,1.30
2018-10-03T17:54:16.407Z,1.10
2018-10-03T17:56:44.103Z,1.33
2018-10-03T17:59:11.804Z,1.00
2018-10-03T18:01:48.299Z,1.20
2018-10-03T18:04:15.922Z,1.30
2018-10-03T18:06:43.574Z,1.23
2018-10-03T18:09:11.823Z,1.30
2018-10-03T18:11:39.503Z,1.30
2018-10-03T18:14:07.365Z,1.37
2018-10-03T18:16:35.052Z,1.30
2018-10-03T18:19:02.660Z,1.30
2018-10-03T18:21:30.215Z,1.33
2018-10-03T18:23:57.835Z,1.23
2018-10-03T18:26:25.423Z,1.37
2018-10-03T18:28:53.076Z,1.20
2018-10-03T18:31:20.757Z,1.20
2018-10-03T18:33:48.293Z,1.30
2018-10-03T18:36:15.900Z,1.60
2018-10-03T18:38:43.561Z,1.13
2018-10-03T18:41:11.194Z,1.30
2018-10-03T18:43:38.817Z,1.20
2018-10-03T18:46:06.417Z,2.30
2018-10-03T18:48:34.000Z,1.30
2018-10-03T18:51:01.616Z,1.33
2018-10-03T18:53:29.284Z,1.37
2018-10-03T18:55:56.904Z,1.57
2018-10-03T18:58:24.610Z,1.17
2018-10-03T19:00:52.309Z,1.47
2018-10-03T19:03:19.950Z,1.37
2018-10-03T19:05:47.669Z,1.60
2018-10-03T19:08:15.460Z,1.37
2018-10-03T19:10:43.016Z,1.30
2018-10-03T19:13:10.638Z,1.13
2018-10-03T19:15:38.252Z,1.40
2018-10-03T19:18:05.986Z,1.50
2018-10-03T19:20:33.925Z,1.33
2018-10-03T19:23:01.623Z,1.50
2018-10-03T19:25:29.236Z,1.23
2018-10-03T19:27:56.847Z,1.83
2018-10-03T19:30:24.530Z,1.30
2018-10-03T19:32:52.202Z,1.30
2018-10-03T19:35:19.861Z,1.40
2018-10-03T19:37:48.369Z,1.37
2018-10-03T19:40:16.160Z,1.63
2018-10-03T19:42:43.863Z,1.40
2018-10-03T19:45:11.423Z,1.60
2018-10-03T19:47:39.064Z,1.30
2018-10-03T19:50:06.691Z,1.30
2018-10-03T19:52:34.331Z,1.20
2018-10-03T19:55:01.935Z,1.47
2018-10-03T19:57:29.596Z,1.07
2018-10-03T19:59:57.283Z,1.47
2018-10-03T20:02:24.933Z,1.70
2018-10-03T20:04:52.545Z,1.40
2018-10-03T20:07:20.109Z,1.43
2018-10-03T20:09:47.770Z,1.37
2018-10-03T20:12:15.427Z,1.50
2018-10-03T20:14:42.999Z,1.20
2018-10-03T20:17:10.595Z,1.07
2018-10-03T20:19:38.277Z,1.50
2018-10-03T20:22:08.903Z,1.97
2018-10-03T20:24:36.796Z,1.60
2018-10-03T20:27:04.467Z,1.33
2018-10-03T20:29:32.163Z,1.50
2018-10-03T20:31:59.824Z,1.40
2018-10-03T20:34:27.462Z,1.47
2018-10-03T20:36:55.036Z,1.33
2018-10-03T20:39:22.623Z,1.10
2018-10-03T20:41:50.352Z,1.50
2018-10-03T20:44:17.962Z,1.30
2018-10-03T20:46:45.580Z,1.43
2018-10-03T20:49:13.216Z,1.40
2018-10-03T20:51:40.796Z,1.33
2018-10-03T20:54:08.418Z,1.40
2018-10-03T20:56:35.993Z,1.33
2018-10-03T20:59:03.685Z,1.50
2018-10-03T21:01:31.337Z,1.30
2018-10-03T21:03:58.931Z,1.50
2018-10-03T21:06:26.612Z,1.07
2018-10-03T21:08:54.247Z,1.20
2018-10-03T21:11:21.887Z,1.47
2018-10-03T21:13:49.547Z,1.20
2018-10-03T21:16:17.164Z,1.47
2018-10-03T21:18:44.755Z,1.30
2018-10-03T21:21:12.375Z,1.73
2018-10-03T21:23:39.983Z,1.50
2018-10-03T21:26:07.622Z,1.20
2018-10-03T21:28:35.222Z,1.90
2018-10-03T21:31:02.885Z,1.40
2018-10-03T21:33:30.491Z,1.37
2018-10-03T21:35:58.068Z,1.20
2018-10-03T21:38:25.716Z,1.27
2018-10-03T21:40:53.316Z,1.53
2018-10-03T21:43:20.888Z,1.20
2018-10-03T21:45:48.578Z,1.40
2018-10-03T21:48:16.252Z,1.50
2018-10-03T21:50:43.787Z,1.30
2018-10-03T21:53:11.378Z,1.40
2018-10-03T21:55:38.992Z,1.80
2018-10-03T21:58:06.675Z,1.53
2018-10-03T22:00:39.781Z,1.73
2018-10-03T22:03:07.437Z,1.47
2018-10-03T22:05:35.060Z,1.27
2018-10-03T22:08:02.641Z,1.60
2018-10-03T22:10:30.302Z,1.60
2018-10-03T22:12:57.876Z,1.67
2018-10-03T22:15:25.560Z,1.30
2018-10-03T22:17:53.165Z,1.20
2018-10-03T22:20:20.815Z,1.50
2018-10-03T22:22:48.537Z,1.83
2018-10-03T22:25:16.071Z,1.57
2018-10-03T22:27:43.655Z,1.23
2018-10-03T22:30:11.274Z,1.60
2018-10-03T22:32:38.911Z,1.50
2018-10-03T22:35:06.520Z,1.23
2018-10-03T22:37:34.170Z,1.13
2018-10-03T22:40:01.743Z,1.77
2018-10-03T22:42:29.334Z,1.53
2018-10-03T22:44:56.977Z,1.73
2018-10-03T22:47:24.599Z,1.47
2018-10-03T22:49:52.221Z,1.40
2018-10-03T22:52:19.883Z,1.30
2018-10-03T22:54:47.535Z,1.30
2018-10-03T22:57:15.147Z,1.40
2018-10-03T22:59:42.837Z,1.43
2018-10-03T23:02:10.417Z,1.40
2018-10-03T23:04:38.120Z,1.60
2018-10-03T23:07:05.710Z,1.10
2018-10-03T23:09:33.327Z,1.53
2018-10-03T23:12:00.924Z,1.53
2018-10-03T23:14:28.521Z,1.40
2018-10-03T23:16:56.102Z,1.57
2018-10-03T23:19:23.697Z,1.60
2018-10-03T23:21:51.320Z,2.00
2018-10-03T23:24:18.909Z,1.30
2018-10-03T23:26:46.612Z,1.40
2018-10-03T23:29:14.183Z,1.70
2018-10-03T23:31:41.843Z,1.30
2018-10-03T23:34:09.484Z,1.47
2018-10-03T23:36:37.112Z,1.43
2018-10-03T23:39:07.423Z,1.63
2018-10-03T23:41:35.109Z,1.40
2018-10-03T23:44:02.705Z,1.47
2018-10-03T23:46:30.331Z,1.37
2018-10-03T23:48:57.972Z,1.50
2018-10-03T23:51:25.561Z,1.67
2018-10-03T23:53:53.136Z,1.43
2018-10-03T23:56:20.775Z,1.40
2018-10-03T23:58:48.385Z,1.57
